Time;durP1;ratioP1;P1;durP2;ratioP2;P2;SDS_P1;SDS_P2;PMS_P1;PMS_P2;Temp;Humidity;BMP_temperature;BMP_pressure;BME280_temperature;BME280_humidity;BME280_pressure;Samples;Min_cycle;Max_cycle;Signal;HPM_P1;HPM_P2
2021/11/22 00:01:11;;;;;;;;;6.00;5.00;;;;;8.99;100.00;101426.91;5015872;28;45268;-78
2021/11/22 00:03:38;;;;;;;;;6.75;6.75;;;;;8.97;100.00;101426.81;5016666;28;45352;-77
2021/11/22 00:06:03;;;;;;;;;11.00;6.50;;;;;8.99;100.00;101429.50;5015334;28;46320;-76
2021/11/22 00:08:29;;;;;;;;;9.50;7.75;;;;;9.02;100.00;101421.03;5017694;28;45257;-76
2021/11/22 00:10:58;;;;;;;;;8.00;5.00;;;;;8.99;100.00;101437.25;5020123;28;45414;-78
2021/11/22 00:13:24;;;;;;;;;8.50;5.75;;;;;8.96;100.00;101437.94;5016031;28;45185;-77
2021/11/22 00:15:52;;;;;;;;;8.00;5.50;;;;;8.97;100.00;101438.81;5015594;28;45962;-76
2021/11/22 00:18:17;;;;;;;;;11.75;8.00;;;;;8.93;100.00;101435.16;5015479;28;45896;-76
2021/11/22 00:20:43;;;;;;;;;5.75;5.50;;;;;8.95;100.00;101438.75;5015454;28;45347;-75
2021/11/22 00:23:08;;;;;;;;;6.50;5.25;;;;;8.96;100.00;101434.50;5015389;28;45450;-77
2021/11/22 00:25:34;;;;;;;;;5.75;5.75;;;;;8.89;100.00;101427.16;5015383;28;45302;-80
2021/11/22 00:28:00;;;;;;;;;8.50;6.50;;;;;8.69;100.00;101397.53;5015235;28;45488;-79
2021/11/22 00:30:26;;;;;;;;;7.75;5.00;;;;;8.90;100.00;101432.44;5016019;28;45321;-76
2021/11/22 00:32:51;;;;;;;;;5.00;5.00;;;;;8.92;100.00;101441.13;5015654;28;45331;-78
2021/11/22 00:35:17;;;;;;;;;5.00;5.00;;;;;8.90;100.00;101440.16;5015736;28;46262;-80
2021/11/22 00:37:45;;;;;;;;;6.50;5.00;;;;;8.80;100.00;101415.47;5015430;28;45326;-77
2021/11/22 00:40:13;;;;;;;;;7.50;7.50;;;;;8.84;100.00;101421.69;5015894;28;45379;-77
2021/11/22 00:42:41;;;;;;;;;5.75;5.50;;;;;8.89;100.00;101446.13;5015773;28;45385;-78
2021/11/22 00:45:08;;;;;;;;;5.75;4.75;;;;;8.86;100.00;101445.03;5016032;28;45325;-76
2021/11/22 00:47:36;;;;;;;;;6.00;4.00;;;;;8.75;100.00;101446.94;4998224;28;45669;-76
2021/11/22 00:50:05;;;;;;;;;5.00;3.50;;;;;8.74;100.00;101445.16;5017131;28;45324;-75
2021/11/22 00:52:30;;;;;;;;;8.00;8.00;;;;;8.65;100.00;101437.72;5019245;28;45513;-77
2021/11/22 00:54:56;;;;;;;;;5.00;5.00;;;;;8.68;100.00;101450.84;5013971;28;45433;-75
2021/11/22 00:57:22;;;;;;;;;9.00;6.00;;;;;8.65;100.00;101437.72;5015068;28;45462;-77
2021/11/22 00:59:47;;;;;;;;;6.50;5.50;;;;;8.71;100.00;101451.03;5015148;28;45361;-79
2021/11/22 01:02:13;;;;;;;;;8.25;5.25;;;;;8.62;100.00;101438.44;5015461;28;45317;-75
2021/11/22 01:04:39;;;;;;;;;6.50;4.75;;;;;8.75;100.00;101452.13;5015205;28;45426;-77
2021/11/22 01:07:04;;;;;;;;;10.00;7.25;;;;;8.77;100.00;101450.53;5014975;28;45275;-80
2021/11/22 01:09:31;;;;;;;;;6.25;5.00;;;;;8.78;100.00;101457.47;5015300;28;45233;-77
2021/11/22 01:11:57;;;;;;;;;9.75;5.75;;;;;8.77;100.00;101464.31;5014964;28;45648;-75
2021/11/22 01:14:22;;;;;;;;;4.25;3.50;;;;;8.80;100.00;101474.84;5015118;28;46062;-75
2021/11/22 01:16:48;;;;;;;;;3.75;3.75;;;;;8.67;100.00;101454.22;5014619;28;45549;-76
2021/11/22 01:19:14;;;;;;;;;6.00;5.75;;;;;8.81;100.00;101478.31;5014932;28;45333;-75
2021/11/22 01:21:40;;;;;;;;;10.25;3.50;;;;;8.76;100.00;101484.88;5015259;28;45816;-75
2021/11/22 01:24:06;;;;;;;;;6.75;5.00;;;;;8.76;100.00;101484.88;5015173;28;45505;-78
2021/11/22 01:26:31;;;;;;;;;4.75;3.75;;;;;8.77;100.00;101478.94;5000162;28;45222;-80
2021/11/22 01:28:57;;;;;;;;;10.75;6.00;;;;;8.73;100.00;101474.34;5017420;28;45485;-78
2021/11/22 01:31:23;;;;;;;;;6.00;4.00;;;;;8.73;100.00;101483.00;5022755;28;45316;-81
2021/11/22 01:33:48;;;;;;;;;8.25;5.50;;;;;8.67;100.00;101480.03;5023393;28;45740;-77
2021/11/22 01:36:14;;;;;;;;;6.00;6.00;;;;;8.70;100.00;101479.31;5019139;28;45288;-79
2021/11/22 01:38:40;;;;;;;;;7.75;7.75;;;;;8.56;100.00;101465.53;5018524;28;45229;-75
2021/11/22 01:41:06;;;;;;;;;7.00;4.00;;;;;8.66;100.00;101488.56;5013763;28;45606;-81
2021/11/22 01:43:32;;;;;;;;;7.25;5.00;;;;;8.61;100.00;101492.56;4998379;28;45526;-75
2021/11/22 01:45:58;;;;;;;;;5.75;4.00;;;;;8.63;100.00;101486.69;4998397;28;45340;-76
2021/11/22 01:48:25;;;;;;;;;6.25;3.25;;;;;8.63;100.00;101478.06;5014557;28;45456;-76
2021/11/22 01:50:53;;;;;;;;;5.50;5.00;;;;;8.64;100.00;101491.06;5018363;28;45610;-75
2021/11/22 01:53:19;;;;;;;;;5.75;5.00;;;;;8.63;100.00;101486.69;5017014;28;45373;-76
2021/11/22 01:55:46;;;;;;;;;5.50;5.50;;;;;8.65;100.00;101484.19;5017305;28;45238;-77
2021/11/22 01:58:12;;;;;;;;;6.00;5.25;;;;;8.66;100.00;101489.47;5017521;28;45505;-75
2021/11/22 02:00:48;;;;;;;;;4.25;4.00;;;;;8.67;100.00;101496.44;5000905;28;45333;-76
2021/11/22 02:03:18;;;;;;;;;4.25;3.50;;;;;8.65;100.00;101503.16;5017316;28;45976;-75
2021/11/22 02:05:44;;;;;;;;;9.50;5.50;;;;;8.64;100.00;101509.13;5016804;28;45922;-76
2021/11/22 02:08:11;;;;;;;;;4.25;3.00;;;;;8.64;100.00;101508.22;5016069;28;45353;-75
2021/11/22 02:10:36;;;;;;;;;9.25;4.00;;;;;8.64;100.00;101515.97;5021125;28;45381;-75
2021/11/22 02:13:04;;;;;;;;;9.25;4.25;;;;;8.62;100.00;101505.56;5002796;28;46355;-75
2021/11/22 02:15:30;;;;;;;;;5.75;3.00;;;;;8.56;100.00;101507.75;5020153;28;45804;-76
2021/11/22 02:17:57;;;;;;;;;7.00;4.00;;;;;8.57;100.00;101506.06;5018484;28;45266;-78
2021/11/22 02:20:28;;;;;;;;;9.25;6.25;;;;;8.58;100.00;101516.50;5017906;28;45309;-79
2021/11/22 02:23:00;;;;;;;;;5.50;4.75;;;;;8.57;100.00;101518.94;5017342;28;45486;-80
2021/11/22 02:25:28;;;;;;;;;6.75;4.25;;;;;8.60;100.00;101529.47;4999710;28;45262;-76
2021/11/22 02:27:55;;;;;;;;;6.25;5.00;;;;;8.48;100.00;101509.84;5017679;28;45299;-79
2021/11/22 02:30:29;;;;;;;;;8.50;6.25;;;;;8.52;100.00;101535.06;5017713;28;45443;-79
2021/11/22 02:32:57;;;;;;;;;6.00;5.00;;;;;8.38;100.00;101510.00;5016858;28;46391;-77
2021/11/22 02:35:22;;;;;;;;;7.75;5.75;;;;;8.41;100.00;101517.94;5017172;28;45824;-76
2021/11/22 02:37:48;;;;;;;;;9.00;6.25;;;;;8.35;100.00;101515.88;5002863;28;45439;-77
2021/11/22 02:40:14;;;;;;;;;8.25;7.00;;;;;8.42;100.00;101526.56;5016713;28;45667;-80
2021/11/22 02:42:41;;;;;;;;;2.00;1.25;;;;;8.27;100.00;101518.72;5017704;28;45276;-77
2021/11/22 02:45:11;;;;;;;;;8.00;4.25;;;;;8.34;100.00;101532.13;5017645;28;45835;-78
2021/11/22 02:47:37;;;;;;;;;8.75;6.00;;;;;8.32;100.00;101518.22;5016960;28;45438;-76
2021/11/22 02:50:05;;;;;;;;;9.75;6.00;;;;;8.38;100.00;101525.47;5017396;28;45651;-81
2021/11/22 02:52:30;;;;;;;;;6.50;5.00;;;;;8.24;100.00;101498.78;5019052;28;45426;-79
2021/11/22 02:54:56;;;;;;;;;7.50;5.00;;;;;8.28;100.00;101518.81;5004133;28;45225;-78
2021/11/22 02:57:22;;;;;;;;;9.00;8.25;;;;;8.36;100.00;101533.13;5007624;28;45353;-79
2021/11/22 02:59:47;;;;;;;;;5.00;4.75;;;;;8.30;100.00;101529.25;5017305;28;45402;-80
2021/11/22 03:02:14;;;;;;;;;7.00;4.75;;;;;8.35;100.00;101528.75;5016767;28;45900;-80
2021/11/22 03:04:42;;;;;;;;;9.00;8.00;;;;;8.32;100.00;101535.38;5017150;28;45793;-79
2021/11/22 03:07:09;;;;;;;;;8.50;4.50;;;;;8.32;100.00;101536.28;5017330;28;45272;-80
2021/11/22 03:09:36;;;;;;;;;10.75;6.25;;;;;8.30;100.00;101540.44;5016628;28;45498;-79
2021/11/22 03:12:06;;;;;;;;;9.75;5.50;;;;;8.37;100.00;101541.75;4998465;28;46979;-80
2021/11/22 03:14:34;;;;;;;;;6.25;5.00;;;;;8.36;100.00;101540.88;5016772;28;46018;-79
2021/11/22 03:17:00;;;;;;;;;7.75;6.25;;;;;8.36;100.00;101540.88;5016613;28;45312;-79
2021/11/22 03:19:27;;;;;;;;;8.25;6.25;;;;;8.34;100.00;101538.97;5017172;28;45532;-80
2021/11/22 03:21:53;;;;;;;;;9.50;6.00;;;;;8.39;100.00;101545.34;5016524;28;45343;-78
2021/11/22 03:24:19;;;;;;;;;8.75;8.25;;;;;8.41;100.00;101551.50;5016523;28;45935;-79
2021/11/22 03:26:46;;;;;;;;;5.00;4.25;;;;;8.41;100.00;101556.66;5016386;28;45423;-77
2021/11/22 03:29:12;;;;;;;;;7.75;4.50;;;;;8.35;100.00;101544.25;5016729;28;45403;-80
2021/11/22 03:31:39;;;;;;;;;7.50;7.50;;;;;8.39;100.00;101563.41;5016944;28;46513;-78
2021/11/22 03:34:07;;;;;;;;;6.25;5.25;;;;;8.35;100.00;101551.06;5018915;28;45847;-79
2021/11/22 03:36:34;;;;;;;;;9.00;7.00;;;;;8.37;100.00;101567.56;5022291;28;45343;-78
2021/11/22 03:39:01;;;;;;;;;9.00;7.50;;;;;8.31;100.00;101562.00;5017559;28;45801;-76
2021/11/22 03:41:29;;;;;;;;;9.00;7.00;;;;;8.26;100.00;101568.53;5016179;28;45252;-77
2021/11/22 03:44:01;;;;;;;;;4.75;4.75;;;;;8.21;100.00;101565.66;5016464;28;45351;-76
2021/11/22 03:46:27;;;;;;;;;4.50;4.50;;;;;8.26;100.00;101572.00;5016221;28;45453;-76
2021/11/22 03:48:53;;;;;;;;;5.75;5.75;;;;;8.21;100.00;101568.22;5015965;28;45501;-76
2021/11/22 03:51:20;;;;;;;;;5.00;4.00;;;;;8.25;100.00;101587.38;5015809;28;46650;-79
2021/11/22 03:53:47;;;;;;;;;7.75;5.00;;;;;8.26;100.00;101590.03;5015394;28;45864;-79
2021/11/22 03:56:13;;;;;;;;;5.00;5.00;;;;;8.18;100.00;101576.66;5016385;28;45448;-79
2021/11/22 03:58:39;;;;;;;;;8.00;5.25;;;;;8.19;100.00;101573.28;5015765;28;45547;-77
2021/11/22 04:01:05;;;;;;;;;8.50;5.00;;;;;8.24;100.00;101585.59;5016321;28;45396;-79
2021/11/22 04:03:32;;;;;;;;;5.75;4.25;;;;;8.30;100.00;101591.16;5015506;28;45319;-80
2021/11/22 04:05:57;;;;;;;;;8.00;5.00;;;;;8.33;100.00;101591.34;5015047;28;45454;-81
2021/11/22 04:08:23;;;;;;;;;8.00;6.25;;;;;8.33;100.00;101593.94;5015522;28;45373;-79
2021/11/22 04:10:50;;;;;;;;;7.00;7.00;;;;;8.33;100.00;101601.66;5015394;28;46169;-78
2021/11/22 04:13:15;;;;;;;;;9.00;5.00;;;;;8.36;100.00;101604.47;5015786;28;45835;-80
2021/11/22 04:15:43;;;;;;;;;5.50;5.50;;;;;8.33;100.00;101602.59;5018320;28;45205;-78
2021/11/22 04:18:09;;;;;;;;;8.25;5.50;;;;;8.34;100.00;101613.78;5017816;28;45578;-76
2021/11/22 04:20:36;;;;;;;;;6.25;6.25;;;;;8.31;100.00;101613.59;5016786;28;45665;-77
2021/11/22 04:23:02;;;;;;;;;9.25;9.00;;;;;8.15;100.00;101581.59;5015706;28;45441;-78
2021/11/22 04:25:28;;;;;;;;;8.00;7.75;;;;;8.20;100.00;101608.63;5017360;28;45375;-77
2021/11/22 04:27:54;;;;;;;;;4.25;4.00;;;;;8.20;100.00;101608.63;5019872;28;45190;-77
2021/11/22 04:30:19;;;;;;;;;7.50;5.00;;;;;8.28;100.00;101614.25;5019094;28;45368;-76
2021/11/22 04:32:45;;;;;;;;;6.25;5.75;;;;;8.32;100.00;101611.13;5016903;28;45268;-76
2021/11/22 04:35:13;;;;;;;;;7.75;5.75;;;;;8.37;100.00;101619.16;5015400;28;45371;-77
2021/11/22 04:37:39;;;;;;;;;7.00;4.00;;;;;8.39;100.00;101616.66;5015477;28;45575;-76
2021/11/22 04:40:09;;;;;;;;;9.25;6.50;;;;;8.39;100.00;101625.31;5015047;28;46379;-76
2021/11/22 04:42:35;;;;;;;;;9.50;7.75;;;;;8.28;100.00;101606.53;5014356;28;45841;-76
2021/11/22 04:45:01;;;;;;;;;7.50;6.00;;;;;8.39;100.00;101630.47;5014671;28;45470;-77
2021/11/22 04:47:27;;;;;;;;;10.00;7.00;;;;;8.27;100.00;101619.34;5015200;28;45347;-76
2021/11/22 04:49:54;;;;;;;;;10.00;6.50;;;;;8.32;100.00;101638.59;5014562;28;45768;-76
2021/11/22 04:52:21;;;;;;;;;10.50;7.50;;;;;8.32;100.00;101652.41;5014932;28;45343;-75
2021/11/22 04:54:46;;;;;;;;;11.00;8.25;;;;;8.26;100.00;101635.59;5016949;28;45494;-77
2021/11/22 04:57:13;;;;;;;;;7.50;6.50;;;;;8.30;100.00;101659.13;5017652;28;45554;-76
2021/11/22 04:59:40;;;;;;;;;7.50;5.25;;;;;8.26;100.00;101654.53;5015993;28;45539;-78
2021/11/22 05:02:08;;;;;;;;;1.00;0.50;;;;;8.26;100.00;101656.25;5019082;28;45930;-77
2021/11/22 05:04:35;;;;;;;;;10.25;8.00;;;;;8.17;100.00;101651.34;5018158;28;45521;-77
2021/11/22 05:07:02;;;;;;;;;6.75;6.75;;;;;8.23;100.00;101661.19;5017752;28;45514;-76
2021/11/22 05:09:27;;;;;;;;;11.00;9.50;;;;;8.19;100.00;101649.78;5018049;28;46341;-78
2021/11/22 05:11:53;;;;;;;;;11.00;9.75;;;;;8.19;100.00;101676.47;5017057;28;45296;-74
2021/11/22 05:14:18;;;;;;;;;10.50;9.00;;;;;8.17;100.00;101675.47;5018018;28;45235;-76
2021/11/22 05:16:44;;;;;;;;;14.50;11.75;;;;;8.15;100.00;101676.16;5017874;28;45596;-76
2021/11/22 05:19:11;;;;;;;;;12.00;9.75;;;;;8.12;100.00;101674.25;5018044;28;46218;-76
2021/11/22 05:21:37;;;;;;;;;10.75;9.00;;;;;8.12;100.00;101684.56;5019033;28;45991;-76
2021/11/22 05:24:04;;;;;;;;;8.50;6.75;;;;;8.06;100.00;101679.00;5017942;28;45391;-80
2021/11/22 05:26:31;;;;;;;;;9.50;8.50;;;;;8.06;100.00;101689.31;5018129;28;45300;-77
2021/11/22 05:29:01;;;;;;;;;8.00;8.00;;;;;8.08;100.00;101685.16;5018121;28;45397;-80
2021/11/22 05:31:27;;;;;;;;;16.00;9.50;;;;;8.03;100.00;101684.84;5018693;28;45284;-77
2021/11/22 05:33:53;;;;;;;;;9.50;8.00;;;;;7.94;100.00;101676.44;5020407;28;45392;-78
2021/11/22 05:36:19;;;;;;;;;9.25;8.75;;;;;8.04;100.00;101691.75;5022042;28;45605;-76
2021/11/22 05:38:47;;;;;;;;;13.50;7.50;;;;;8.04;100.00;101696.03;5018843;28;45622;-75
2021/11/22 05:41:14;;;;;;;;;16.75;11.75;;;;;7.98;100.00;101690.47;5018318;28;45423;-74
2021/11/22 05:43:40;;;;;;;;;13.25;8.75;;;;;8.04;100.00;101709.81;5000881;28;45479;-77
2021/11/22 05:46:08;;;;;;;;;9.25;9.25;;;;;8.02;100.00;101708.84;5000619;28;45595;-74
2021/11/22 05:48:34;;;;;;;;;10.75;10.00;;;;;7.98;100.00;101704.25;5016658;28;45281;-75
2021/11/22 05:51:04;;;;;;;;;11.00;9.00;;;;;7.99;100.00;101708.63;5018483;28;45415;-78
2021/11/22 05:53:36;;;;;;;;;16.00;10.75;;;;;7.89;100.00;101701.03;5017724;28;45446;-78
2021/11/22 05:56:04;;;;;;;;;14.25;11.75;;;;;7.97;100.00;101715.34;5018562;28;45312;-79
2021/11/22 05:58:31;;;;;;;;;17.00;13.00;;;;;8.03;100.00;101722.63;5017434;28;46434;-78
2021/11/22 06:01:01;;;;;;;;;13.25;12.75;;;;;7.94;100.00;101704.81;5017507;28;45438;-81
2021/11/22 06:03:30;;;;;;;;;18.00;14.50;;;;;7.83;100.00;101695.47;5017830;28;45364;-77
2021/11/22 06:05:56;;;;;;;;;19.50;15.00;;;;;7.82;100.00;101703.97;5018330;28;45421;-78
2021/11/22 06:08:22;;;;;;;;;20.00;18.25;;;;;8.01;100.00;101734.50;4999632;28;46399;-78
2021/11/22 06:10:49;;;;;;;;;19.50;17.00;;;;;8.06;100.00;101736.63;5018916;28;45733;-78
2021/11/22 06:13:16;;;;;;;;;18.25;14.75;;;;;8.11;100.00;101742.09;5004725;28;45344;-81
2021/11/22 06:15:42;;;;;;;;;17.00;17.00;;;;;8.14;100.00;101738.84;5018318;28;45312;-80
2021/11/22 06:18:09;;;;;;;;;22.25;18.25;;;;;8.18;100.00;101740.84;5019314;28;46484;-81
2021/11/22 06:20:35;;;;;;;;;21.00;19.50;;;;;8.19;100.00;101751.28;5017888;28;45383;-81
2021/11/22 06:23:01;;;;;;;;;21.00;17.75;;;;;8.13;100.00;101744.81;5017722;28;45332;-79
2021/11/22 06:25:27;;;;;;;;;20.75;17.00;;;;;8.22;100.00;101755.75;5017830;28;45292;-79
2021/11/22 06:27:53;;;;;;;;;20.25;18.50;;;;;8.20;100.00;101758.25;5016863;28;45360;-80
2021/11/22 06:30:19;;;;;;;;;21.00;20.00;;;;;8.23;100.00;101766.94;5016886;28;45585;-77
2021/11/22 06:32:46;;;;;;;;;20.50;19.25;;;;;8.31;100.00;101774.44;5017147;28;46861;-80
2021/11/22 06:35:11;;;;;;;;;20.50;18.00;;;;;8.35;100.00;101785.88;5017704;28;45518;-80
2021/11/22 06:37:37;;;;;;;;;17.50;16.25;;;;;8.37;100.00;101774.84;5015607;28;45551;-78
2021/11/22 06:40:05;;;;;;;;;18.25;18.25;;;;;8.41;100.00;101791.47;5016217;28;45467;-77
2021/11/22 06:42:31;;;;;;;;;17.50;15.75;;;;;8.43;100.00;101791.56;5016932;28;45383;-76
2021/11/22 06:44:57;;;;;;;;;21.50;17.75;;;;;8.46;100.00;101803.00;5023506;28;45498;-77
2021/11/22 06:47:24;;;;;;;;;16.50;15.50;;;;;8.50;100.00;101796.38;5021885;28;45454;-77
2021/11/22 06:49:51;;;;;;;;;16.00;14.50;;;;;8.45;100.00;101785.72;5016126;28;45483;-76
2021/11/22 06:52:18;;;;;;;;;14.25;12.50;;;;;8.44;100.00;101808.84;5017642;28;45557;-76
2021/11/22 06:54:44;;;;;;;;;17.25;17.00;;;;;8.48;100.00;101814.38;5018670;28;45486;-79
2021/11/22 06:57:10;;;;;;;;;20.25;15.75;;;;;8.38;100.00;101799.00;5022032;28;45677;-79
2021/11/22 06:59:36;;;;;;;;;13.75;13.75;;;;;8.48;100.00;101816.03;5011064;28;45574;-78
2021/11/22 07:02:02;;;;;;;;;14.50;12.00;;;;;8.38;100.00;101804.16;5016101;28;45441;-78
2021/11/22 07:04:29;;;;;;;;;16.75;13.50;;;;;8.41;100.00;101816.38;5015063;28;45257;-75
2021/11/22 07:06:56;;;;;;;;;16.75;14.75;;;;;8.40;100.00;101815.50;5013987;28;45475;-77
2021/11/22 07:09:23;;;;;;;;;14.50;12.00;;;;;8.48;100.00;101824.69;5014772;28;45497;-82
2021/11/22 07:11:48;;;;;;;;;16.00;16.00;;;;;8.61;100.00;101838.44;5015100;28;45476;-75
2021/11/22 07:14:14;;;;;;;;;11.75;11.00;;;;;8.49;100.00;101834.22;5016639;28;45333;-77
2021/11/22 07:16:43;;;;;;;;;16.75;15.25;;;;;8.61;100.00;101841.91;5016334;28;45525;-76
2021/11/22 07:19:10;;;;;;;;;15.75;15.00;;;;;8.54;100.00;101841.38;5016196;28;45924;-76
2021/11/22 07:21:36;;;;;;;;;13.00;11.75;;;;;8.63;100.00;101860.13;5015364;28;45635;-75
2021/11/22 07:24:02;;;;;;;;;16.75;12.75;;;;;8.67;100.00;101860.44;5012658;28;45526;-78
2021/11/22 07:26:27;;;;;;;;;15.00;14.50;;;;;8.63;100.00;101848.09;5014771;28;45511;-77
2021/11/22 07:28:53;;;;;;;;;13.75;12.00;;;;;8.66;100.00;101866.38;5014473;28;45469;-76
2021/11/22 07:31:19;;;;;;;;;11.50;10.75;;;;;8.69;100.00;101869.97;5016224;28;45388;-76
2021/11/22 07:33:44;;;;;;;;;15.00;11.75;;;;;8.72;100.00;101873.66;5014518;28;45923;-75
2021/11/22 07:36:10;;;;;;;;;15.25;13.25;;;;;8.64;100.00;101857.63;5020919;28;45832;-78
2021/11/22 07:38:35;;;;;;;;;15.75;14.00;;;;;8.71;100.00;101887.34;5022463;28;45234;-75
2021/11/22 07:41:01;;;;;;;;;13.25;12.25;;;;;8.71;100.00;101889.00;5018300;28;45221;-81
2021/11/22 07:43:27;;;;;;;;;15.50;14.00;;;;;8.66;100.00;101887.03;5017138;28;45389;-79
2021/11/22 07:45:53;;;;;;;;;17.25;14.50;;;;;8.70;100.00;101902.72;5016783;28;46105;-81
2021/11/22 07:48:18;;;;;;;;;15.75;12.25;;;;;8.70;100.00;101907.88;5016596;28;45574;-77
2021/11/22 07:50:44;;;;;;;;;11.00;11.00;;;;;8.69;100.00;101913.84;5015744;28;45392;-77
2021/11/22 07:53:10;;;;;;;;;14.75;13.25;;;;;8.73;100.00;101921.91;5016341;28;45368;-79
2021/11/22 07:55:35;;;;;;;;;12.00;11.00;;;;;8.75;100.00;101927.19;5015444;28;46162;-74
2021/11/22 07:58:01;;;;;;;;;12.25;10.75;;;;;8.76;100.00;101923.81;5014979;28;45436;-75
2021/11/22 08:00:28;;;;;;;;;13.25;12.00;;;;;8.79;100.00;101932.66;5014636;28;45391;-74
2021/11/22 08:02:53;;;;;;;;;18.50;17.25;;;;;8.78;100.00;101928.28;5010905;28;45551;-74
2021/11/22 08:05:22;;;;;;;;;15.00;12.50;;;;;8.79;100.00;101911.13;5014698;28;45953;-74
2021/11/22 08:07:50;;;;;;;;;13.75;11.25;;;;;8.83;100.00;101929.53;5015114;28;45374;-73
2021/11/22 08:13:09;;;;;;;;;12.75;10.50;;;;;8.94;100.00;101938.00;5015183;28;45341;-73
2021/11/22 08:15:36;;;;;;;;;14.75;10.50;;;;;8.96;100.00;101930.38;5015202;28;45776;-71
2021/11/22 08:18:06;;;;;;;;;15.25;11.00;;;;;8.99;100.00;101935.75;5018568;28;45323;-77
2021/11/22 08:20:33;;;;;;;;;13.00;11.75;;;;;8.99;100.00;101940.91;5017092;28;45765;-75
2021/11/22 08:22:59;;;;;;;;;15.25;9.50;;;;;8.98;100.00;101937.44;5015657;28;45409;-76
2021/11/22 08:25:29;;;;;;;;;12.50;12.25;;;;;8.96;100.00;101943.28;4996856;28;46257;-77
2021/11/22 08:27:55;;;;;;;;;15.75;11.00;;;;;9.06;100.00;101942.22;5014209;28;45885;-75
2021/11/22 08:30:26;;;;;;;;;14.00;12.25;;;;;9.09;100.00;101950.19;5015696;28;45453;-76
2021/11/22 08:32:53;;;;;;;;;13.00;11.25;;;;;9.11;100.00;101948.63;5015100;28;45749;-76
2021/11/22 08:35:20;;;;;;;;;12.50;10.50;;;;;9.11;100.00;101951.22;5018174;28;46192;-76
2021/11/22 08:37:47;;;;;;;;;13.00;13.00;;;;;9.09;100.00;101945.03;5001006;28;45849;-77
2021/11/22 08:40:17;;;;;;;;;12.00;12.00;;;;;9.10;100.00;101952.88;5018603;28;45673;-76
2021/11/22 08:42:44;;;;;;;;;13.25;11.00;;;;;9.11;100.00;101946.91;5019082;28;45607;-76
2021/11/22 08:45:09;;;;;;;;;11.25;10.00;;;;;9.07;100.00;101949.19;5018814;28;45660;-76
2021/11/22 08:47:35;;;;;;;;;11.25;10.50;;;;;9.20;100.00;101967.34;5018637;28;45237;-76
2021/11/22 08:50:02;;;;;;;;;10.50;9.00;;;;;9.18;100.00;101961.16;5019023;28;45189;-76
2021/11/22 08:52:28;;;;;;;;;9.75;9.75;;;;;9.20;100.00;101967.34;5019319;28;45474;-76
2021/11/22 08:54:53;;;;;;;;;11.25;10.50;;;;;9.21;100.00;101965.63;5018656;28;46359;-76
2021/11/22 08:57:20;;;;;;;;;13.00;11.50;;;;;9.24;100.00;101965.88;5021109;28;45438;-76
2021/11/22 08:59:46;;;;;;;;;8.00;7.50;;;;;9.27;100.00;101972.13;5019960;28;45554;-76
2021/11/22 09:02:12;;;;;;;;;11.50;9.75;;;;;9.30;100.00;101976.59;5019554;28;45379;-76
2021/11/22 09:04:38;;;;;;;;;11.50;8.00;;;;;9.33;100.00;101976.81;5000339;28;47845;-77
2021/11/22 09:07:04;;;;;;;;;9.75;9.75;;;;;9.33;100.00;101976.81;5018935;28;45864;-76
2021/11/22 09:09:30;;;;;;;;;8.25;6.00;;;;;9.28;100.00;101978.22;5018703;28;45184;-75
2021/11/22 09:11:56;;;;;;;;;5.00;5.00;;;;;9.34;100.00;101985.50;5019041;28;45223;-79
2021/11/22 09:14:22;;;;;;;;;11.75;8.75;;;;;9.31;100.00;101990.44;5018894;28;46013;-78
2021/11/22 09:16:47;;;;;;;;;9.25;7.25;;;;;9.31;100.00;101990.44;5018923;28;45363;-79
2021/11/22 09:19:14;;;;;;;;;9.00;6.50;;;;;9.37;100.00;101998.59;5018617;28;45410;-76
2021/11/22 09:21:40;;;;;;;;;7.50;5.50;;;;;9.35;100.00;101997.59;5018878;28;45380;-79
2021/11/22 09:24:07;;;;;;;;;10.00;9.75;;;;;9.29;100.00;101995.47;5018624;28;46082;-80
2021/11/22 09:26:52;;;;;;;;;8.25;7.50;;;;;9.21;100.00;102000.16;5018145;28;45975;-78
2021/11/22 09:29:38;;;;;;;;;6.50;6.25;;;;;9.11;100.00;101990.84;5018887;28;45179;-77
2021/11/22 09:32:06;;;;;;;;;10.50;7.50;;;;;9.00;100.00;101996.06;5018979;28;45351;-76
2021/11/22 09:34:53;;;;;;;;;6.75;6.25;;;;;9.01;100.00;102003.91;5001381;28;47349;-77
2021/11/22 09:37:39;;;;;;;;;15.00;7.00;;;;;8.98;100.00;102007.19;5026655;28;45315;-78
2021/11/22 09:40:06;;;;;;;;;9.50;7.75;;;;;9.02;100.00;102012.53;5023731;28;45533;-79
2021/11/22 09:42:32;;;;;;;;;6.00;6.00;;;;;8.93;100.00;102005.94;5000560;28;45649;-79
2021/11/22 09:44:59;;;;;;;;;6.50;5.00;;;;;9.00;100.00;102020.19;5017724;28;45353;-79
2021/11/22 09:47:25;;;;;;;;;8.75;8.25;;;;;8.89;100.00;102009.13;5017604;28;45756;-78
2021/11/22 09:49:54;;;;;;;;;9.25;8.75;;;;;9.02;100.00;102022.88;5018337;28;45285;-79
2021/11/22 09:52:24;;;;;;;;;9.00;6.00;;;;;9.05;100.00;102034.34;5018892;28;45429;-78
2021/11/22 09:54:50;;;;;;;;;10.25;9.00;;;;;9.05;100.00;102036.00;5017751;28;45454;-77
2021/11/22 09:57:15;;;;;;;;;8.75;8.00;;;;;9.06;100.00;102041.31;5017945;28;45950;-76
2021/11/22 09:59:42;;;;;;;;;5.50;5.25;;;;;9.07;100.00;102049.94;5017707;28;45277;-77
2021/11/22 10:02:08;;;;;;;;;8.75;7.75;;;;;8.96;100.00;102037.16;5018263;28;45331;-77
2021/11/22 10:04:34;;;;;;;;;9.75;5.75;;;;;8.92;100.00;102017.06;5017469;28;45454;-78
2021/11/22 10:07:08;;;;;;;;;4.25;4.25;;;;;9.04;100.00;102034.22;5017802;28;45405;-79
2021/11/22 10:12:25;;;;;;;;;9.75;5.75;;;;;9.09;100.00;102043.22;5018672;28;45368;-78
2021/11/22 10:15:14;;;;;;;;;11.25;7.75;;;;;9.09;100.00;102050.97;5020219;28;45336;-78
2021/11/22 10:20:27;;;;;;;;;9.75;7.50;;;;;9.17;100.00;102062.72;5024718;28;45343;-78
2021/11/22 10:22:53;;;;;;;;;9.00;7.75;;;;;9.20;100.00;102059.44;5003300;28;45306;-78
2021/11/22 10:25:23;;;;;;;;;5.50;5.50;;;;;9.24;100.00;102064.94;5017745;28;45961;-79
2021/11/22 10:28:13;;;;;;;;;9.50;6.50;;;;;9.34;100.00;102063.91;5017685;28;45878;-78
2021/11/22 10:30:50;;;;;;;;;11.50;11.25;;;;;9.37;100.00;102061.56;5017535;28;45682;-78
2021/11/22 10:33:20;;;;;;;;;7.75;7.50;;;;;9.37;100.00;102073.56;5000075;28;45412;-78
2021/11/22 10:35:46;;;;;;;;;9.00;6.75;;;;;9.28;100.00;102050.56;5017092;28;45363;-79
2021/11/22 10:38:33;;;;;;;;;10.00;9.25;;;;;9.38;100.00;102060.75;5017469;28;45478;-76
2021/11/22 10:41:21;;;;;;;;;8.00;6.75;;;;;9.45;100.00;102059.47;5007773;28;45647;-77
2021/11/22 10:44:08;;;;;;;;;9.75;8.00;;;;;9.52;100.00;102069.47;5010495;28;45464;-76
2021/11/22 10:46:48;;;;;;;;;9.25;8.00;;;;;9.63;100.00;102077.06;5006783;28;45743;-76
2021/11/22 10:49:17;;;;;;;;;7.50;7.50;;;;;9.67;100.00;102069.63;5017116;28;45225;-75
2021/11/22 10:51:48;;;;;;;;;9.00;5.50;;;;;9.75;100.00;102075.34;5016640;28;45528;-75
2021/11/22 10:54:17;;;;;;;;;8.00;7.00;;;;;9.79;100.00;102077.31;5016459;28;45499;-75
2021/11/22 10:56:47;;;;;;;;;8.00;6.00;;;;;9.80;100.00;102084.28;5015973;28;45962;-75
2021/11/22 10:59:16;;;;;;;;;10.75;7.25;;;;;9.74;100.00;102084.75;5019008;28;45668;-74
2021/11/22 11:01:51;;;;;;;;;7.25;5.25;;;;;9.84;100.00;102090.56;5021634;28;45501;-77
2021/11/22 11:04:19;;;;;;;;;8.50;7.75;;;;;9.91;100.00;102085.91;5017932;28;45523;-75
2021/11/22 11:09:38;;;;;;;;;9.25;8.75;;;;;9.88;100.00;102090.88;5016569;28;45953;-77
2021/11/22 11:12:17;;;;;;;;;7.25;7.25;;;;;9.79;100.00;102076.44;5017020;28;45454;-77
2021/11/22 11:17:37;;;;;;;;;7.25;7.25;;;;;9.67;100.00;102085.16;5016760;28;45411;-76
2021/11/22 11:20:09;;;;;;;;;8.50;6.75;;;;;9.67;100.00;102085.16;5017042;28;45505;-77
2021/11/22 11:22:36;;;;;;;;;6.25;6.25;;;;;9.61;100.00;102064.00;4998692;28;45337;-77
2021/11/22 11:25:23;;;;;;;;;5.25;5.25;;;;;9.57;100.00;102073.25;4998860;28;45556;-75
2021/11/22 11:28:08;;;;;;;;;10.75;6.75;;;;;9.55;100.00;102076.53;5009259;28;46355;-76
2021/11/22 11:30:34;;;;;;;;;11.00;6.50;;;;;9.50;100.00;102078.81;5015526;28;45907;-77
2021/11/22 11:33:03;;;;;;;;;9.00;8.25;;;;;9.50;100.00;102081.38;5016382;28;45272;-78
2021/11/22 11:35:32;;;;;;;;;10.00;6.00;;;;;9.45;100.00;102060.38;5016627;28;45908;-77